KACV/ACV METAR and TAF weather

Enter ICAO airport designator
Station Type Date Time Source
KACV METAR 2020/10/20 16:53 UTC NOAA

KACV 201653Z AUTO 00000KT 4SM BR BKN002 11/11 A3005 RMK AO2 SLP180 T01060106


Station Type Date Time Source
KACV Decoded METAR 2020/10/20 16:53 UTC NOAA

ARCATA/EUREKA ARCATA AIRPORT, CA, United States (KACV) 40-59N 124-06W 67M
Oct 20, 2020 - 12:53 PM EDT / 2020.10.20 1653 UTC
Wind: Calm:0
Visibility: 4 mile(s):0
Sky conditions: mostly cloudy
Weather: mist
Temperature: 51.1 F (10.6 C)
Dew Point: 51.1 F (10.6 C)
Relative Humidity: 100%
Pressure (altimeter): 30.05 in. Hg (1017 hPa)
ob: KACV 201653Z AUTO 00000KT 4SM BR BKN002 11/11 A3005 RMK AO2 SLP180 T01060106
cycle: 17

Station Type Date Time Source
KACV TAF 2020/10/20 15:18 UTC NOAA

TAF
AMD KACV 201515Z 2015/2112 VRB04KT 6SM BR FEW002
TEMPO 2015/2017 1/4SM FG OVC001
FM201700 30009KT P6SM FEW002
FM202100 33011G18KT 6SM HZ SKC
FM210300 33005KT P6SM SKC

Example: see airport list